sensor_id;sensor_type;location;lat;lon;timestamp;pressure;altitude;pressure_sealevel;temperature;humidity
72548;BME280;60570;50.848;6.776;2023-04-01T00:00:24;98443.53;;;12.17;67.41
72548;BME280;60570;50.848;6.776;2023-04-01T00:01:26;98437.97;;;12.17;67.42
72548;BME280;60570;50.848;6.776;2023-04-01T00:02:26;98437.56;;;12.19;67.55
72548;BME280;60570;50.848;6.776;2023-04-01T00:03:28;98432.00;;;12.19;67.58
72548;BME280;60570;50.848;6.776;2023-04-01T00:04:29;98434.78;;;12.19;67.48
72548;BME280;60570;50.848;6.776;2023-04-01T00:05:31;98436.00;;;12.18;67.88
72548;BME280;60570;50.848;6.776;2023-04-01T00:06:31;98439.16;;;12.16;67.69
72548;BME280;60570;50.848;6.776;2023-04-01T00:07:33;98434.38;;;12.17;67.69
72548;BME280;60570;50.848;6.776;2023-04-01T00:08:34;98439.16;;;12.16;67.71
72548;BME280;60570;50.848;6.776;2023-04-01T00:09:35;98440.34;;;12.15;67.64
72548;BME280;60570;50.848;6.776;2023-04-01T00:10:38;98429.22;;;12.15;67.76
72548;BME280;60570;50.848;6.776;2023-04-01T00:11:40;98436.78;;;12.15;67.67
72548;BME280;60570;50.848;6.776;2023-04-01T00:12:41;98439.56;;;12.15;67.72
72548;BME280;60570;50.848;6.776;2023-04-01T00:13:43;98434.78;;;12.15;67.73
72548;BME280;60570;50.848;6.776;2023-04-01T00:14:44;98442.34;;;12.15;67.74
72548;BME280;60570;50.848;6.776;2023-04-01T00:15:47;98435.19;;;12.14;67.77
72548;BME280;60570;50.848;6.776;2023-04-01T00:16:48;98436.00;;;12.14;67.58
72548;BME280;60570;50.848;6.776;2023-04-01T00:17:49;98437.56;;;12.15;67.65
72548;BME280;60570;50.848;6.776;2023-04-01T00:18:50;98426.84;;;12.14;67.42
72548;BME280;60570;50.848;6.776;2023-04-01T00:19:54;98434.00;;;12.15;67.53
72548;BME280;60570;50.848;6.776;2023-04-01T00:20:55;98434.00;;;12.15;67.85
72548;BME280;60570;50.848;6.776;2023-04-01T00:21:57;98434.00;;;12.15;67.64
72548;BME280;60570;50.848;6.776;2023-04-01T00:22:57;98436.78;;;12.15;67.59
72548;BME280;60570;50.848;6.776;2023-04-01T00:23:59;98432.41;;;12.14;67.80
72548;BME280;60570;50.848;6.776;2023-04-01T00:25:00;98432.41;;;12.14;67.74
72548;BME280;60570;50.848;6.776;2023-04-01T00:26:04;98439.16;;;12.13;67.52
72548;BME280;60570;50.848;6.776;2023-04-01T00:27:05;98438.38;;;12.12;67.92
72548;BME280;60570;50.848;6.776;2023-04-01T00:28:07;98436.38;;;12.09;67.65
72548;BME280;60570;50.848;6.776;2023-04-01T00:29:09;98426.44;;;12.08;67.90
72548;BME280;60570;50.848;6.776;2023-04-01T00:30:10;98426.44;;;12.08;68.13
72548;BME280;60570;50.848;6.776;2023-04-01T00:31:13;98424.84;;;12.07;68.03
72548;BME280;60570;50.848;6.776;2023-04-01T00:32:14;98432.41;;;12.10;67.98
72548;BME280;60570;50.848;6.776;2023-04-01T00:33:16;98424.84;;;12.11;67.85
72548;BME280;60570;50.848;6.776;2023-04-01T00:34:17;98429.63;;;12.10;67.90
72548;BME280;60570;50.848;6.776;2023-04-01T00:35:18;98426.03;;;12.10;68.05
72548;BME280;60570;50.848;6.776;2023-04-01T00:36:21;98426.84;;;12.10;67.75
72548;BME280;60570;50.848;6.776;2023-04-01T00:37:23;98421.66;;;12.09;68.01
72548;BME280;60570;50.848;6.776;2023-04-01T00:38:25;98422.06;;;12.11;67.72
72548;BME280;60570;50.848;6.776;2023-04-01T00:39:28;98425.25;;;12.09;67.91
72548;BME280;60570;50.848;6.776;2023-04-01T00:40:30;98425.25;;;12.09;67.58
72548;BME280;60570;50.848;6.776;2023-04-01T00:41:36;98432.00;;;12.08;67.75
72548;BME280;60570;50.848;6.776;2023-04-01T00:42:36;98424.84;;;12.07;67.96
72548;BME280;60570;50.848;6.776;2023-04-01T00:43:38;98423.25;;;12.06;68.04
72548;BME280;60570;50.848;6.776;2023-04-01T00:44:39;98427.63;;;12.07;67.57
72548;BME280;60570;50.848;6.776;2023-04-01T00:45:43;98421.66;;;12.09;67.63
72548;BME280;60570;50.848;6.776;2023-04-01T00:46:44;98426.03;;;12.10;68.02
72548;BME280;60570;50.848;6.776;2023-04-01T00:47:46;98428.03;;;12.09;68.04
72548;BME280;60570;50.848;6.776;2023-04-01T00:48:48;98412.13;;;12.06;67.78
72548;BME280;60570;50.848;6.776;2023-04-01T00:49:51;98426.03;;;12.06;67.74
72548;BME280;60570;50.848;6.776;2023-04-01T00:50:57;98418.88;;;12.05;67.87
72548;BME280;60570;50.848;6.776;2023-04-01T00:52:02;98421.25;;;12.07;68.06
72548;BME280;60570;50.848;6.776;2023-04-01T00:53:05;98413.72;;;12.07;67.75
72548;BME280;60570;50.848;6.776;2023-04-01T00:54:09;98408.94;;;12.08;67.98
72548;BME280;60570;50.848;6.776;2023-04-01T00:55:13;98420.88;;;12.08;67.93
72548;BME280;60570;50.848;6.776;2023-04-01T00:56:19;98423.66;;;12.08;67.92
72548;BME280;60570;50.848;6.776;2023-04-01T00:57:27;98415.69;;;12.07;67.67
72548;BME280;60570;50.848;6.776;2023-04-01T00:58:33;98418.47;;;12.07;67.83
72548;BME280;60570;50.848;6.776;2023-04-01T00:59:38;98421.25;;;12.07;67.81
72548;BME280;60570;50.848;6.776;2023-04-01T01:00:40;98419.69;;;12.06;67.75
72548;BME280;60570;50.848;6.776;2023-04-01T01:01:42;98416.91;;;12.06;67.87
72548;BME280;60570;50.848;6.776;2023-04-01T01:02:44;98414.91;;;12.06;67.62
72548;BME280;60570;50.848;6.776;2023-04-01T01:03:45;98418.88;;;12.05;67.62
72548;BME280;60570;50.848;6.776;2023-04-01T01:04:47;98421.66;;;12.05;67.75
72548;BME280;60570;50.848;6.776;2023-04-01T01:06:03;98419.69;;;12.06;67.77
72548;BME280;60570;50.848;6.776;2023-04-01T01:07:19;98410.53;;;12.05;67.53
72548;BME280;60570;50.848;6.776;2023-04-01T01:08:26;98420.47;;;12.06;67.68
72548;BME280;60570;50.848;6.776;2023-04-01T01:09:39;98416.09;;;12.05;67.81
72548;BME280;60570;50.848;6.776;2023-04-01T01:10:44;98417.28;;;12.04;67.87
72548;BME280;60570;50.848;6.776;2023-04-01T01:11:52;98411.72;;;12.04;68.01
72548;BME280;60570;50.848;6.776;2023-04-01T01:13:03;98422.06;;;12.04;68.22
72548;BME280;60570;50.848;6.776;2023-04-01T01:14:10;98413.72;;;12.04;67.65
72548;BME280;60570;50.848;6.776;2023-04-01T01:15:20;98417.66;;;12.03;67.97
72548;BME280;60570;50.848;6.776;2023-04-01T01:16:26;98417.66;;;12.03;67.86
72548;BME280;60570;50.848;6.776;2023-04-01T01:17:45;98410.13;;;12.00;67.73
72548;BME280;60570;50.848;6.776;2023-04-01T01:18:53;98417.66;;;12.03;67.86
72548;BME280;60570;50.848;6.776;2023-04-01T01:20:24;98417.66;;;12.03;67.88
72548;BME280;60570;50.848;6.776;2023-04-01T01:21:47;98412.91;;;12.03;67.87
72548;BME280;60570;50.848;6.776;2023-04-01T01:24:50;98406.94;;;12.05;67.70
72548;BME280;60570;50.848;6.776;2023-04-01T01:26:08;98412.09;;;12.03;67.77
72548;BME280;60570;50.848;6.776;2023-04-01T01:27:14;98411.34;;;12.02;68.17
72548;BME280;60570;50.848;6.776;2023-04-01T01:28:32;98417.31;;;12.01;67.77
72548;BME280;60570;50.848;6.776;2023-04-01T01:30:05;98402.19;;;11.98;67.96
72548;BME280;60570;50.848;6.776;2023-04-01T01:31:13;98415.69;;;12.00;68.01
72548;BME280;60570;50.848;6.776;2023-04-01T01:32:30;98404.16;;;11.98;68.06
72548;BME280;60570;50.848;6.776;2023-04-01T01:33:44;98405.38;;;11.97;67.93
72548;BME280;60570;50.848;6.776;2023-04-01T01:34:53;98403.34;;;11.97;68.17
72548;BME280;60570;50.848;6.776;2023-04-01T01:35:58;98416.09;;;11.98;67.92
72548;BME280;60570;50.848;6.776;2023-04-01T01:37:05;98412.09;;;11.99;67.96
72548;BME280;60570;50.848;6.776;2023-04-01T01:38:11;98402.19;;;11.98;68.08
72548;BME280;60570;50.848;6.776;2023-04-01T01:39:15;98412.50;;;11.98;68.25
72548;BME280;60570;50.848;6.776;2023-04-01T01:40:17;98412.50;;;11.98;67.89
72548;BME280;60570;50.848;6.776;2023-04-01T01:41:20;98408.16;;;11.97;67.89
72548;BME280;60570;50.848;6.776;2023-04-01T01:42:23;98406.53;;;11.96;68.10
72548;BME280;60570;50.848;6.776;2023-04-01T01:43:33;98410.53;;;11.95;68.02
72548;BME280;60570;50.848;6.776;2023-04-01T01:44:37;98410.53;;;11.95;68.31
72548;BME280;60570;50.848;6.776;2023-04-01T01:45:42;98402.56;;;11.93;68.07
72548;BME280;60570;50.848;6.776;2023-04-01T01:46:45;98403.38;;;11.94;68.07
72548;BME280;60570;50.848;6.776;2023-04-01T01:47:48;98418.06;;;11.94;68.23
72548;BME280;60570;50.848;6.776;2023-04-01T01:48:51;98404.56;;;11.93;68.14
72548;BME280;60570;50.848;6.776;2023-04-01T01:49:54;98406.53;;;11.92;68.23
72548;BME280;60570;50.848;6.776;2023-04-01T01:50:57;98416.47;;;11.93;68.28
72548;BME280;60570;50.848;6.776;2023-04-01T01:51:59;98411.72;;;11.94;68.00
72548;BME280;60570;50.848;6.776;2023-04-01T01:53:05;98406.94;;;11.94;68.45
72548;BME280;60570;50.848;6.776;2023-04-01T01:54:06;98419.66;;;11.95;67.88
72548;BME280;60570;50.848;6.776;2023-04-01T01:55:26;98407.34;;;11.96;68.12
72548;BME280;60570;50.848;6.776;2023-04-01T01:56:29;98413.31;;;11.95;68.00
72548;BME280;60570;50.848;6.776;2023-04-01T01:57:33;98407.75;;;11.95;68.17
72548;BME280;60570;50.848;6.776;2023-04-01T01:58:37;98413.31;;;11.95;68.09
72548;BME280;60570;50.848;6.776;2023-04-01T01:59:42;98409.72;;;11.94;68.27
72548;BME280;60570;50.848;6.776;2023-04-01T02:00:48;98410.91;;;11.93;67.89
72548;BME280;60570;50.848;6.776;2023-04-01T02:01:52;98418.88;;;11.95;68.24
72548;BME280;60570;50.848;6.776;2023-04-01T02:02:57;98400.56;;;11.94;68.01
72548;BME280;60570;50.848;6.776;2023-04-01T02:03:59;98409.72;;;11.94;68.05
72548;BME280;60570;50.848;6.776;2023-04-01T02:05:01;98410.53;;;11.95;68.13
72548;BME280;60570;50.848;6.776;2023-04-01T02:06:08;98411.72;;;11.94;67.92
72548;BME280;60570;50.848;6.776;2023-04-01T02:07:14;98411.72;;;11.94;68.35
72548;BME280;60570;50.848;6.776;2023-04-01T02:08:21;98420.06;;;11.94;68.13
72548;BME280;60570;50.848;6.776;2023-04-01T02:09:24;98408.94;;;11.94;68.01
72548;BME280;60570;50.848;6.776;2023-04-01T02:10:26;98410.13;;;11.93;68.23
72548;BME280;60570;50.848;6.776;2023-04-01T02:11:30;98408.53;;;11.92;68.29
72548;BME280;60570;50.848;6.776;2023-04-01T02:12:33;98411.72;;;11.94;68.49
72548;BME280;60570;50.848;6.776;2023-04-01T02:13:39;98409.72;;;11.94;68.11
72548;BME280;60570;50.848;6.776;2023-04-01T02:14:44;98414.50;;;11.94;68.18
72548;BME280;60570;50.848;6.776;2023-04-01T02:15:49;98412.13;;;11.92;68.18
72548;BME280;60570;50.848;6.776;2023-04-01T02:16:54;98413.28;;;11.91;68.31
72548;BME280;60570;50.848;6.776;2023-04-01T02:17:57;98412.50;;;11.91;68.29
72548;BME280;60570;50.848;6.776;2023-04-01T02:18:59;98411.72;;;11.90;67.97
72548;BME280;60570;50.848;6.776;2023-04-01T02:20:06;98412.88;;;11.89;68.32
72548;BME280;60570;50.848;6.776;2023-04-01T02:21:09;98407.31;;;11.89;68.20
72548;BME280;60570;50.848;6.776;2023-04-01T02:22:14;98404.53;;;11.89;68.26
72548;BME280;60570;50.848;6.776;2023-04-01T02:23:17;98408.94;;;11.90;68.38
72548;BME280;60570;50.848;6.776;2023-04-01T02:24:18;98418.84;;;11.91;68.21
72548;BME280;60570;50.848;6.776;2023-04-01T02:25:25;98410.50;;;11.91;68.27
72548;BME280;60570;50.848;6.776;2023-04-01T02:26:28;98404.94;;;11.91;68.21
72548;BME280;60570;50.848;6.776;2023-04-01T02:27:30;98412.91;;;11.93;68.32
72548;BME280;60570;50.848;6.776;2023-04-01T02:28:32;98413.28;;;11.91;68.35
72548;BME280;60570;50.848;6.776;2023-04-01T02:29:34;98410.50;;;11.91;68.56
72548;BME280;60570;50.848;6.776;2023-04-01T02:30:37;98414.09;;;11.92;68.10
72548;BME280;60570;50.848;6.776;2023-04-01T02:31:39;98408.53;;;11.92;68.17
72548;BME280;60570;50.848;6.776;2023-04-01T02:32:41;98412.50;;;11.91;68.40
72548;BME280;60570;50.848;6.776;2023-04-01T02:33:44;98403.38;;;11.90;68.49
72548;BME280;60570;50.848;6.776;2023-04-01T02:34:47;98400.19;;;11.88;68.54
72548;BME280;60570;50.848;6.776;2023-04-01T02:35:48;98404.53;;;11.89;68.32
72548;BME280;60570;50.848;6.776;2023-04-01T02:36:51;98400.97;;;11.89;68.45
72548;BME280;60570;50.848;6.776;2023-04-01T02:37:55;98406.56;;;11.89;68.65
72548;BME280;60570;50.848;6.776;2023-04-01T02:38:57;98405.75;;;11.88;68.35
72548;BME280;60570;50.848;6.776;2023-04-01T02:40:03;98404.13;;;11.87;68.31
72548;BME280;60570;50.848;6.776;2023-04-01T02:41:06;98400.59;;;11.87;68.41
72548;BME280;60570;50.848;6.776;2023-04-01T02:42:07;98397.00;;;11.86;68.24
72548;BME280;60570;50.848;6.776;2023-04-01T02:43:09;98395.78;;;11.87;68.57
72548;BME280;60570;50.848;6.776;2023-04-01T02:44:10;98393.00;;;11.87;68.62
72548;BME280;60570;50.848;6.776;2023-04-01T02:45:13;98399.38;;;11.88;68.11
72548;BME280;60570;50.848;6.776;2023-04-01T02:46:14;98395.03;;;11.87;68.46
72548;BME280;60570;50.848;6.776;2023-04-01T02:47:16;98396.59;;;11.88;68.26
72548;BME280;60570;50.848;6.776;2023-04-01T02:48:17;98393.41;;;11.89;68.40
72548;BME280;60570;50.848;6.776;2023-04-01T02:49:18;98392.63;;;11.89;68.54
72548;BME280;60570;50.848;6.776;2023-04-01T02:50:19;98394.63;;;11.88;68.57
72548;BME280;60570;50.848;6.776;2023-04-01T02:51:21;98397.41;;;11.88;68.37
72548;BME280;60570;50.848;6.776;2023-04-01T02:52:23;98392.63;;;11.89;68.34
72548;BME280;60570;50.848;6.776;2023-04-01T02:53:24;98398.19;;;11.89;68.24
72548;BME280;60570;50.848;6.776;2023-04-01T02:54:25;98391.84;;;11.88;68.36
72548;BME280;60570;50.848;6.776;2023-04-01T02:55:27;98394.63;;;11.88;68.38
72548;BME280;60570;50.848;6.776;2023-04-01T02:56:28;98401.75;;;11.89;68.23
72548;BME280;60570;50.848;6.776;2023-04-01T02:57:30;98395.41;;;11.89;68.45
72548;BME280;60570;50.848;6.776;2023-04-01T02:58:30;98397.41;;;11.88;68.32
72548;BME280;60570;50.848;6.776;2023-04-01T02:59:32;98405.34;;;11.86;68.35
72548;BME280;60570;50.848;6.776;2023-04-01T03:00:33;98400.59;;;11.87;68.25
72548;BME280;60570;50.848;6.776;2023-04-01T03:01:34;98398.19;;;11.85;68.48
72548;BME280;60570;50.848;6.776;2023-04-01T03:02:35;98396.19;;;11.86;68.13
72548;BME280;60570;50.848;6.776;2023-04-01T03:03:36;98401.34;;;11.84;68.44
72548;BME280;60570;50.848;6.776;2023-04-01T03:04:37;98401.34;;;11.84;68.20
72548;BME280;60570;50.848;6.776;2023-04-01T03:05:39;98397.81;;;11.83;68.43
72548;BME280;60570;50.848;6.776;2023-04-01T03:06:39;98396.19;;;11.82;68.43
72548;BME280;60570;50.848;6.776;2023-04-01T03:07:43;98402.56;;;11.83;68.30
72548;BME280;60570;50.848;6.776;2023-04-01T03:08:44;98399.78;;;11.83;68.29
72548;BME280;60570;50.848;6.776;2023-04-01T03:09:45;98401.34;;;11.84;68.44
72548;BME280;60570;50.848;6.776;2023-04-01T03:10:46;98404.53;;;11.82;68.45
72548;BME280;60570;50.848;6.776;2023-04-01T03:11:48;98395.03;;;11.83;68.17
72548;BME280;60570;50.848;6.776;2023-04-01T03:12:48;98401.75;;;11.82;68.12
72548;BME280;60570;50.848;6.776;2023-04-01T03:13:50;98400.97;;;11.82;68.38
72548;BME280;60570;50.848;6.776;2023-04-01T03:14:51;98402.97;;;11.81;68.13
72548;BME280;60570;50.848;6.776;2023-04-01T03:15:52;98403.75;;;11.82;68.34
72548;BME280;60570;50.848;6.776;2023-04-01T03:16:53;98408.53;;;11.81;68.53
72548;BME280;60570;50.848;6.776;2023-04-01T03:17:55;98400.56;;;11.80;68.17
72548;BME280;60570;50.848;6.776;2023-04-01T03:18:55;98404.94;;;11.81;68.14
72548;BME280;60570;50.848;6.776;2023-04-01T03:19:59;98403.75;;;11.82;68.30
72548;BME280;60570;50.848;6.776;2023-04-01T03:21:12;98407.72;;;11.81;68.36
72548;BME280;60570;50.848;6.776;2023-04-01T03:22:14;98405.34;;;11.79;68.41
72548;BME280;60570;50.848;6.776;2023-04-01T03:23:16;98400.56;;;11.80;68.23
72548;BME280;60570;50.848;6.776;2023-04-01T03:24:19;98410.09;;;11.79;68.41
72548;BME280;60570;50.848;6.776;2023-04-01T03:25:21;98404.94;;;11.77;68.38
72548;BME280;60570;50.848;6.776;2023-04-01T03:26:22;98408.50;;;11.78;68.31
72548;BME280;60570;50.848;6.776;2023-04-01T03:27:23;98408.50;;;11.78;68.38
72548;BME280;60570;50.848;6.776;2023-04-01T03:28:25;98407.31;;;11.79;68.37
72548;BME280;60570;50.848;6.776;2023-04-01T03:29:26;98406.53;;;11.78;68.49
72548;BME280;60570;50.848;6.776;2023-04-01T03:30:27;98406.53;;;11.78;68.57
72548;BME280;60570;50.848;6.776;2023-04-01T03:31:30;98410.50;;;11.77;68.56
72548;BME280;60570;50.848;6.776;2023-04-01T03:32:31;98406.53;;;11.78;68.44
72548;BME280;60570;50.848;6.776;2023-04-01T03:33:33;98409.31;;;11.78;68.69
72548;BME280;60570;50.848;6.776;2023-04-01T03:34:35;98412.88;;;11.79;68.26
72548;BME280;60570;50.848;6.776;2023-04-01T03:35:35;98406.13;;;11.80;68.17
72548;BME280;60570;50.848;6.776;2023-04-01T03:36:37;98408.13;;;11.79;68.36
72548;BME280;60570;50.848;6.776;2023-04-01T03:37:39;98405.72;;;11.78;68.19
72548;BME280;60570;50.848;6.776;2023-04-01T03:38:41;98414.47;;;11.76;68.23
72548;BME280;60570;50.848;6.776;2023-04-01T03:39:43;98416.44;;;11.76;68.50
72548;BME280;60570;50.848;6.776;2023-04-01T03:40:44;98413.25;;;11.73;68.25
72548;BME280;60570;50.848;6.776;2023-04-01T03:41:46;98409.69;;;11.73;68.38
72548;BME280;60570;50.848;6.776;2023-04-01T03:42:47;98408.50;;;11.74;68.33
72548;BME280;60570;50.848;6.776;2023-04-01T03:43:48;98421.59;;;11.73;68.55
72548;BME280;60570;50.848;6.776;2023-04-01T03:44:49;98416.84;;;11.74;68.53
72548;BME280;60570;50.848;6.776;2023-04-01T03:45:51;98422.41;;;11.74;68.71
72548;BME280;60570;50.848;6.776;2023-04-01T03:46:52;98408.50;;;11.74;68.43
72548;BME280;60570;50.848;6.776;2023-04-01T03:47:53;98420.44;;;11.75;68.79
72548;BME280;60570;50.848;6.776;2023-04-01T03:48:54;98407.69;;;11.73;68.46
72548;BME280;60570;50.848;6.776;2023-04-01T03:49:56;98413.25;;;11.73;68.44
72548;BME280;60570;50.848;6.776;2023-04-01T03:50:56;98418.81;;;11.73;68.45
72548;BME280;60570;50.848;6.776;2023-04-01T03:51:58;98414.47;;;11.73;68.60
72548;BME280;60570;50.848;6.776;2023-04-01T03:52:59;98413.25;;;11.73;68.44
72548;BME280;60570;50.848;6.776;2023-04-01T03:54:02;98412.09;;;11.75;68.57
72548;BME280;60570;50.848;6.776;2023-04-01T03:55:03;98416.84;;;11.74;68.57
72548;BME280;60570;50.848;6.776;2023-04-01T03:56:06;98417.25;;;11.73;68.50
72548;BME280;60570;50.848;6.776;2023-04-01T03:57:07;98415.25;;;11.73;68.52
72548;BME280;60570;50.848;6.776;2023-04-01T03:58:09;98421.59;;;11.73;68.30
72548;BME280;60570;50.848;6.776;2023-04-01T03:59:09;98411.69;;;11.73;68.25
72548;BME280;60570;50.848;6.776;2023-04-01T04:00:12;98418.44;;;11.72;68.58
72548;BME280;60570;50.848;6.776;2023-04-01T04:01:14;98419.22;;;11.72;68.57
72548;BME280;60570;50.848;6.776;2023-04-01T04:02:16;98426.78;;;11.72;68.53
72548;BME280;60570;50.848;6.776;2023-04-01T04:03:17;98419.63;;;11.70;68.63
72548;BME280;60570;50.848;6.776;2023-04-01T04:04:19;98416.44;;;11.72;68.58
72548;BME280;60570;50.848;6.776;2023-04-01T04:05:20;98410.47;;;11.73;68.54
72548;BME280;60570;50.848;6.776;2023-04-01T04:06:22;98416.84;;;11.74;68.32
72548;BME280;60570;50.848;6.776;2023-04-01T04:07:23;98418.44;;;11.75;68.25
72548;BME280;60570;50.848;6.776;2023-04-01T04:08:25;98416.44;;;11.76;68.67
72548;BME280;60570;50.848;6.776;2023-04-01T04:09:27;98425.59;;;11.76;68.52
72548;BME280;60570;50.848;6.776;2023-04-01T04:10:29;98424.00;;;11.75;68.45
72548;BME280;60570;50.848;6.776;2023-04-01T04:11:30;98416.03;;;11.73;68.51
72548;BME280;60570;50.848;6.776;2023-04-01T04:12:32;98429.16;;;11.73;68.28
72548;BME280;60570;50.848;6.776;2023-04-01T04:13:33;98422.81;;;11.73;68.56
72548;BME280;60570;50.848;6.776;2023-04-01T04:14:36;98422.81;;;11.73;68.69
72548;BME280;60570;50.848;6.776;2023-04-01T04:15:36;98426.00;;;11.71;68.66
72548;BME280;60570;50.848;6.776;2023-04-01T04:16:39;98434.34;;;11.71;68.21
72548;BME280;60570;50.848;6.776;2023-04-01T04:17:40;98418.44;;;11.72;68.51
72548;BME280;60570;50.848;6.776;2023-04-01T04:18:41;98425.59;;;11.73;68.47
72548;BME280;60570;50.848;6.776;2023-04-01T04:19:42;98426.78;;;11.72;68.45
72548;BME280;60570;50.848;6.776;2023-04-01T04:20:44;98425.19;;;11.70;68.78
72548;BME280;60570;50.848;6.776;2023-04-01T04:21:46;98427.97;;;11.70;68.35
72548;BME280;60570;50.848;6.776;2023-04-01T04:22:47;98433.94;;;11.69;68.52
72548;BME280;60570;50.848;6.776;2023-04-01T04:23:48;98435.09;;;11.68;68.55
72548;BME280;60570;50.848;6.776;2023-04-01T04:24:52;98430.34;;;11.68;68.66
72548;BME280;60570;50.848;6.776;2023-04-01T04:25:54;98433.94;;;11.69;68.86
72548;BME280;60570;50.848;6.776;2023-04-01T04:26:56;98426.75;;;11.68;68.82
72548;BME280;60570;50.848;6.776;2023-04-01T04:27:57;98422.00;;;11.68;68.37
72548;BME280;60570;50.848;6.776;2023-04-01T04:28:59;98435.09;;;11.68;68.36
72548;BME280;60570;50.848;6.776;2023-04-01T04:30:00;98436.72;;;11.69;68.57
72548;BME280;60570;50.848;6.776;2023-04-01T04:31:02;98430.75;;;11.67;68.58
72548;BME280;60570;50.848;6.776;2023-04-01T04:32:05;98433.94;;;11.65;68.68
72548;BME280;60570;50.848;6.776;2023-04-01T04:33:06;98439.81;;;11.64;69.09
72548;BME280;60570;50.848;6.776;2023-04-01T04:34:07;98431.47;;;11.64;68.83
72548;BME280;60570;50.848;6.776;2023-04-01T04:35:09;98436.28;;;11.63;68.79
72548;BME280;60570;50.848;6.776;2023-04-01T04:36:10;98437.84;;;11.64;68.84
72548;BME280;60570;50.848;6.776;2023-04-01T04:37:11;98430.72;;;11.63;68.84
72548;BME280;60570;50.848;6.776;2023-04-01T04:38:12;98436.28;;;11.63;68.74
72548;BME280;60570;50.848;6.776;2023-04-01T04:39:14;98434.25;;;11.64;68.69
72548;BME280;60570;50.848;6.776;2023-04-01T04:40:17;98433.09;;;11.65;68.75
72548;BME280;60570;50.848;6.776;2023-04-01T04:41:18;98433.94;;;11.65;68.74
72548;BME280;60570;50.848;6.776;2023-04-01T04:42:22;98438.66;;;11.65;68.60
72548;BME280;60570;50.848;6.776;2023-04-01T04:43:22;98438.66;;;11.65;68.62
72548;BME280;60570;50.848;6.776;2023-04-01T04:44:24;98437.47;;;11.66;68.78
72548;BME280;60570;50.848;6.776;2023-04-01T04:45:25;98437.84;;;11.64;69.02
72548;BME280;60570;50.848;6.776;2023-04-01T04:46:26;98435.88;;;11.65;68.70
72548;BME280;60570;50.848;6.776;2023-04-01T04:47:27;98440.63;;;11.64;68.80
72548;BME280;60570;50.848;6.776;2023-04-01T04:48:29;98442.59;;;11.64;68.60
72548;BME280;60570;50.848;6.776;2023-04-01T04:49:30;98444.63;;;11.63;69.07
72548;BME280;60570;50.848;6.776;2023-04-01T04:50:32;98442.59;;;11.64;68.93
72548;BME280;60570;50.848;6.776;2023-04-01T04:51:33;98446.19;;;11.64;68.72
72548;BME280;60570;50.848;6.776;2023-04-01T04:52:36;98443.41;;;11.64;69.03
72548;BME280;60570;50.848;6.776;2023-04-01T04:53:36;98442.59;;;11.64;68.96
72548;BME280;60570;50.848;6.776;2023-04-01T04:54:38;98441.44;;;11.65;69.00
72548;BME280;60570;50.848;6.776;2023-04-01T04:55:44;98447.84;;;11.65;68.81
72548;BME280;60570;50.848;6.776;2023-04-01T04:56:44;98445.38;;;11.64;68.58
72548;BME280;60570;50.848;6.776;2023-04-01T04:57:46;98448.97;;;11.64;68.79
72548;BME280;60570;50.848;6.776;2023-04-01T04:58:47;98447.00;;;11.65;68.73
72548;BME280;60570;50.848;6.776;2023-04-01T04:59:49;98450.19;;;11.63;68.86
72548;BME280;60570;50.848;6.776;2023-04-01T05:00:49;98452.56;;;11.61;68.86
72548;BME280;60570;50.848;6.776;2023-04-01T05:01:51;98451.75;;;11.61;68.85
72548;BME280;60570;50.848;6.776;2023-04-01T05:02:52;98454.13;;;11.62;68.93
72548;BME280;60570;50.848;6.776;2023-04-01T05:03:53;98456.50;;;11.60;69.02
72548;BME280;60570;50.848;6.776;2023-04-01T05:04:54;98454.53;;;11.61;69.00
72548;BME280;60570;50.848;6.776;2023-04-01T05:05:56;98466.47;;;11.61;68.77
72548;BME280;60570;50.848;6.776;2023-04-01T05:06:56;98454.53;;;11.61;68.77
72548;BME280;60570;50.848;6.776;2023-04-01T05:07:58;98461.66;;;11.62;69.09
72548;BME280;60570;50.848;6.776;2023-04-01T05:08:59;98458.88;;;11.62;69.16
72548;BME280;60570;50.848;6.776;2023-04-01T05:10:00;98468.03;;;11.62;68.51
72548;BME280;60570;50.848;6.776;2023-04-01T05:11:03;98459.28;;;11.60;69.03
72548;BME280;60570;50.848;6.776;2023-04-01T05:12:05;98464.44;;;11.62;69.21
72548;BME280;60570;50.848;6.776;2023-04-01T05:13:06;98464.84;;;11.64;69.08
72548;BME280;60570;50.848;6.776;2023-04-01T05:14:12;98455.75;;;11.63;68.87
72548;BME280;60570;50.848;6.776;2023-04-01T05:15:13;98456.91;;;11.62;68.86
72548;BME280;60570;50.848;6.776;2023-04-01T05:16:17;98462.47;;;11.62;69.15
72548;BME280;60570;50.848;6.776;2023-04-01T05:17:18;98467.63;;;11.60;68.76
72548;BME280;60570;50.848;6.776;2023-04-01T05:18:20;98460.91;;;11.61;69.21
72548;BME280;60570;50.848;6.776;2023-04-01T05:19:21;98464.84;;;11.60;68.87
72548;BME280;60570;50.848;6.776;2023-04-01T05:20:22;98463.28;;;11.59;69.19
72548;BME280;60570;50.848;6.776;2023-04-01T05:21:24;98467.63;;;11.57;69.16
72548;BME280;60570;50.848;6.776;2023-04-01T05:22:25;98462.47;;;11.59;69.23
72548;BME280;60570;50.848;6.776;2023-04-01T05:23:26;98466.81;;;11.60;69.10
72548;BME280;60570;50.848;6.776;2023-04-01T05:24:28;98462.88;;;11.61;69.16
72548;BME280;60570;50.848;6.776;2023-04-01T05:25:28;98461.25;;;11.60;69.33
72548;BME280;60570;50.848;6.776;2023-04-01T05:26:31;98468.03;;;11.59;69.21
72548;BME280;60570;50.848;6.776;2023-04-01T05:27:32;98468.44;;;11.57;69.32
72548;BME280;60570;50.848;6.776;2023-04-01T05:28:34;98467.22;;;11.58;69.11
72548;BME280;60570;50.848;6.776;2023-04-01T05:29:35;98468.03;;;11.55;69.51
72548;BME280;60570;50.848;6.776;2023-04-01T05:30:36;98470.41;;;11.57;69.46
72548;BME280;60570;50.848;6.776;2023-04-01T05:31:40;98475.16;;;11.56;69.24
72548;BME280;60570;50.848;6.776;2023-04-01T05:32:41;98469.19;;;11.54;69.52
72548;BME280;60570;50.848;6.776;2023-04-01T05:33:43;98471.56;;;11.52;69.48
72548;BME280;60570;50.848;6.776;2023-04-01T05:34:44;98479.16;;;11.55;69.48
72548;BME280;60570;50.848;6.776;2023-04-01T05:35:46;98478.75;;;11.57;69.37